createdAt,value
2018-08-04T00:04:00.039Z,17.90
2018-08-04T00:09:04.947Z,21.80
2018-08-04T00:14:09.491Z,17.73
2018-08-04T00:19:13.041Z,17.97
2018-08-04T00:24:16.582Z,18.40
2018-08-04T00:29:20.898Z,20.30
2018-08-04T00:34:24.429Z,19.30
2018-08-04T00:39:27.963Z,17.80
2018-08-04T00:44:31.521Z,19.43
2018-08-04T00:49:35.110Z,22.00
2018-08-04T00:54:39.600Z,17.50
2018-08-04T00:59:51.430Z,20.33
2018-08-04T01:04:54.983Z,21.13
2018-08-04T01:10:01.443Z,20.30
2018-08-04T01:15:05.266Z,19.83
2018-08-04T01:20:08.911Z,19.80
2018-08-04T01:25:12.474Z,19.70
2018-08-04T01:30:16.543Z,25.67
2018-08-04T01:35:20.077Z,28.70
2018-08-04T01:40:23.956Z,30.93
2018-08-04T01:45:28.140Z,39.10
2018-08-04T01:50:32.525Z,27.93
2018-08-04T01:55:36.091Z,30.30
2018-08-04T02:00:40.469Z,34.03
2018-08-04T02:05:44.024Z,44.90
2018-08-04T02:10:47.950Z,38.50
2018-08-04T02:15:51.487Z,29.80
2018-08-04T02:20:55.727Z,32.83
2018-08-04T02:25:59.867Z,27.50
2018-08-04T02:31:03.508Z,27.90
2018-08-04T02:36:07.098Z,39.87
2018-08-04T02:41:11.015Z,33.67
2018-08-04T02:46:14.735Z,34.43
2018-08-04T02:51:18.319Z,39.23
2018-08-04T02:56:25.315Z,34.50
2018-08-04T03:01:29.295Z,36.77
2018-08-04T03:06:32.830Z,34.40
2018-08-04T03:11:36.434Z,31.63
2018-08-04T03:16:40.251Z,33.20
2018-08-04T03:21:43.826Z,33.60
2018-08-04T03:26:47.486Z,36.60
2018-08-04T03:31:51.879Z,38.57
2018-08-04T03:36:55.478Z,32.60
2018-08-04T03:41:59.056Z,33.37
2018-08-04T03:47:02.695Z,41.60
2018-08-04T03:52:06.242Z,32.00
2018-08-04T03:57:09.913Z,31.30
2018-08-04T04:02:13.477Z,27.40
2018-08-04T04:07:17.950Z,31.20
2018-08-04T04:12:21.498Z,31.47
2018-08-04T04:17:25.268Z,31.27
2018-08-04T04:22:28.834Z,32.13
2018-08-04T04:27:32.371Z,29.00
2018-08-04T04:32:35.896Z,33.57
2018-08-04T04:37:39.461Z,30.90
2018-08-04T04:42:43.008Z,33.40
2018-08-04T04:47:46.592Z,23.93
2018-08-04T04:52:51.659Z,24.30
2018-08-04T04:57:55.330Z,23.70
2018-08-04T05:02:58.919Z,28.03
2018-08-04T05:08:02.600Z,25.50
2018-08-04T05:13:07.707Z,29.23
2018-08-04T05:18:11.342Z,24.70
2018-08-04T05:23:15.044Z,25.47
2018-08-04T05:28:19.331Z,23.63
2018-08-04T05:33:22.904Z,24.30
2018-08-04T05:38:26.460Z,27.40
2018-08-04T05:43:30.072Z,24.87
2018-08-04T05:48:33.603Z,24.27
2018-08-04T05:53:38.152Z,27.60
2018-08-04T05:58:41.720Z,31.03
2018-08-04T06:03:45.340Z,30.63
2018-08-04T06:08:48.894Z,27.40
2018-08-04T06:13:52.454Z,25.77
2018-08-04T06:18:56.086Z,33.67
2018-08-04T06:24:00.523Z,30.07
2018-08-04T06:29:04.663Z,29.20
2018-08-04T06:34:08.269Z,29.40
2018-08-04T06:39:11.902Z,30.57
2018-08-04T06:44:16.055Z,22.63
2018-08-04T06:49:19.643Z,23.47
2018-08-04T06:54:23.609Z,24.37
2018-08-04T06:59:28.891Z,25.23
2018-08-04T07:04:33.128Z,24.03
2018-08-04T07:14:51.751Z,24.00
2018-08-04T07:19:55.267Z,24.90
2018-08-04T07:24:58.863Z,27.67
2018-08-04T07:30:07.847Z,27.23
2018-08-04T07:35:11.454Z,23.70
2018-08-04T07:40:15.202Z,21.70
2018-08-04T07:45:19.448Z,25.87
2018-08-04T07:50:22.996Z,27.70
2018-08-04T07:55:26.602Z,25.07
2018-08-04T08:00:30.167Z,25.23
2018-08-04T08:05:33.719Z,22.80
2018-08-04T08:10:37.634Z,23.63
2018-08-04T08:15:41.112Z,23.10
2018-08-04T08:20:44.675Z,22.40
2018-08-04T08:25:59.315Z,23.50
2018-08-04T08:31:03.187Z,21.03
2018-08-04T08:36:07.272Z,18.93
2018-08-04T08:41:11.125Z,18.33
2018-08-04T08:46:14.731Z,21.90
2018-08-04T08:51:18.306Z,22.13
2018-08-04T08:56:21.874Z,18.77
2018-08-04T09:01:25.606Z,21.07
2018-08-04T09:06:29.206Z,23.90
2018-08-04T09:11:32.790Z,20.73
2018-08-04T09:16:36.332Z,17.53
2018-08-04T09:21:40.847Z,15.83
2018-08-04T09:26:44.403Z,19.03
2018-08-04T09:31:47.963Z,17.70
2018-08-04T09:36:51.516Z,21.00
2018-08-04T09:41:55.400Z,19.10
2018-08-04T09:46:59.339Z,20.17
2018-08-04T09:52:02.875Z,20.63
2018-08-04T09:57:07.363Z,21.50
2018-08-04T10:02:12.983Z,20.80
2018-08-04T10:07:16.543Z,19.93
2018-08-04T10:12:20.339Z,16.97
2018-08-04T10:17:23.881Z,16.20
2018-08-04T10:22:27.682Z,15.20
2018-08-04T10:27:31.235Z,14.23
2018-08-04T10:32:35.188Z,16.53
2018-08-04T10:37:38.939Z,15.97
2018-08-04T10:42:42.506Z,12.93
2018-08-04T10:47:46.103Z,14.20
2018-08-04T10:52:49.738Z,11.80
2018-08-04T10:57:53.299Z,12.53
2018-08-04T11:02:56.853Z,14.90
2018-08-04T11:08:00.673Z,15.23
2018-08-04T11:13:04.288Z,10.63
2018-08-04T11:18:08.713Z,11.03
2018-08-04T11:23:13.687Z,14.30
2018-08-04T11:28:17.531Z,13.00
2018-08-04T11:33:22.515Z,11.50
2018-08-04T11:38:26.146Z,11.87
2018-08-04T11:43:29.746Z,10.57
2018-08-04T11:48:33.328Z,8.97
2018-08-04T11:53:36.554Z,19.80
2018-08-04T11:58:40.139Z,11.20
2018-08-04T12:03:44.219Z,11.47
2018-08-04T12:08:48.047Z,11.17
2018-08-04T12:13:51.785Z,10.03
2018-08-04T12:18:55.371Z,8.67
2018-08-04T12:23:58.922Z,10.20
2018-08-04T12:29:03.350Z,13.57
2018-08-04T12:34:07.410Z,9.00
2018-08-04T12:39:12.139Z,11.40
2018-08-04T12:44:15.946Z,8.90
2018-08-04T12:49:19.565Z,8.30
2018-08-04T12:54:23.759Z,8.93
2018-08-04T12:59:27.544Z,5.90
2018-08-04T13:04:31.215Z,8.03
2018-08-04T13:09:34.917Z,6.33
2018-08-04T13:14:38.667Z,7.93
2018-08-04T13:19:43.015Z,8.40
2018-08-04T13:24:46.590Z,8.87
2018-08-04T13:29:50.151Z,8.30
2018-08-04T13:34:54.171Z,8.30
2018-08-04T13:40:06.306Z,7.90
2018-08-04T13:45:09.887Z,8.00
2018-08-04T13:50:13.434Z,8.37
2018-08-04T13:55:17.798Z,9.53
2018-08-04T14:00:21.350Z,10.67
2018-08-04T14:05:24.908Z,12.00
2018-08-04T14:10:28.444Z,8.50
2018-08-04T14:15:32.121Z,10.27
2018-08-04T14:20:40.687Z,11.13
2018-08-04T14:25:44.226Z,10.10
2018-08-04T14:30:47.885Z,11.97
2018-08-04T14:35:52.135Z,8.60
2018-08-04T14:40:56.097Z,11.10
2018-08-04T14:45:59.975Z,14.03
2018-08-04T14:51:03.697Z,11.43
2018-08-04T14:56:07.251Z,12.87
2018-08-04T15:01:10.791Z,15.20
2018-08-04T15:06:14.379Z,16.70
2018-08-04T15:11:18.731Z,14.10
2018-08-04T15:16:22.541Z,14.03
2018-08-04T15:21:26.364Z,15.27
2018-08-04T15:26:30.434Z,11.67
2018-08-04T15:31:34.389Z,12.97
2018-08-04T15:36:38.626Z,15.87
2018-08-04T15:41:42.511Z,11.10
2018-08-04T15:46:46.076Z,11.40
2018-08-04T15:51:49.620Z,11.43
2018-08-04T15:56:53.199Z,9.93
2018-08-04T16:01:56.737Z,13.77
2018-08-04T16:07:00.290Z,14.77
2018-08-04T16:12:04.507Z,15.40
2018-08-04T16:17:08.314Z,12.03
2018-08-04T16:22:11.859Z,11.80
2018-08-04T16:27:15.494Z,9.93
2018-08-04T16:32:19.026Z,12.23
2018-08-04T16:37:22.597Z,12.10
2018-08-04T16:42:26.167Z,10.97
2018-08-04T16:47:30.424Z,10.30
2018-08-04T16:52:34.085Z,9.67
2018-08-04T16:57:37.673Z,12.50
2018-08-04T17:02:42.146Z,10.17
2018-08-04T17:07:45.682Z,9.90
2018-08-04T17:12:49.224Z,10.80
2018-08-04T17:17:52.943Z,13.93
2018-08-04T17:22:56.543Z,13.97
2018-08-04T17:28:00.105Z,15.00
2018-08-04T17:33:03.662Z,13.80
2018-08-04T17:38:07.589Z,16.43
2018-08-04T17:43:11.762Z,16.93
2018-08-04T17:48:15.931Z,21.03
2018-08-04T17:53:19.504Z,12.53
2018-08-04T17:58:23.107Z,13.30
2018-08-04T18:03:31.012Z,14.13
2018-08-04T18:08:34.600Z,16.40
2018-08-04T18:13:38.323Z,17.20
2018-08-04T18:18:41.978Z,12.90
2018-08-04T18:23:46.061Z,11.73
2018-08-04T18:28:50.260Z,13.67
2018-08-04T18:33:54.740Z,23.37
2018-08-04T18:38:58.839Z,15.17
2018-08-04T18:44:03.037Z,24.10
2018-08-04T18:49:07.649Z,15.50
2018-08-04T18:54:12.468Z,16.70
2018-08-04T18:59:17.544Z,14.97
2018-08-04T19:04:22.989Z,15.50
2018-08-04T19:09:40.601Z,19.30
2018-08-04T19:14:44.827Z,18.67
2018-08-04T19:25:04.313Z,24.53
2018-08-04T19:30:13.473Z,25.73
2018-08-04T19:35:17.808Z,34.53
2018-08-04T19:40:21.725Z,23.17
2018-08-04T19:45:25.709Z,19.60
2018-08-04T19:50:30.561Z,17.17
2018-08-04T19:55:34.484Z,17.97
2018-08-04T20:00:38.824Z,14.87
2018-08-04T20:05:42.994Z,16.50
2018-08-04T20:10:47.347Z,13.10
2018-08-04T20:15:51.431Z,16.80
2018-08-04T20:21:21.872Z,22.47
2018-08-04T20:26:26.226Z,17.20
2018-08-04T20:31:30.262Z,16.03
2018-08-04T20:36:34.191Z,13.67
2018-08-04T20:41:38.626Z,16.60
2018-08-04T20:46:43.532Z,21.40
2018-08-04T20:51:47.822Z,19.40
2018-08-04T20:56:52.675Z,14.10
2018-08-04T21:02:02.440Z,14.27
2018-08-04T21:07:06.892Z,19.13
2018-08-04T21:12:12.808Z,22.53
2018-08-04T21:17:17.582Z,18.30
2018-08-04T21:22:24.358Z,17.30
2018-08-04T21:27:28.631Z,16.07
2018-08-04T21:32:32.833Z,18.23
2018-08-04T21:37:36.861Z,16.30
2018-08-04T21:42:42.998Z,19.33
2018-08-04T21:47:46.891Z,21.80
2018-08-04T21:52:50.801Z,18.43
2018-08-04T21:57:55.568Z,19.00
2018-08-04T22:03:03.727Z,15.77
2018-08-04T22:08:18.912Z,17.97
2018-08-04T22:13:24.080Z,23.00
2018-08-04T22:18:28.036Z,21.60
2018-08-04T22:23:32.446Z,20.37
2018-08-04T22:28:36.740Z,17.13
2018-08-04T22:33:41.221Z,17.67
2018-08-04T22:38:45.367Z,16.83
2018-08-04T22:43:49.411Z,17.80
2018-08-04T22:49:01.351Z,18.17
2018-08-04T22:54:05.447Z,19.00
2018-08-04T22:59:09.890Z,16.57
2018-08-04T23:04:14.782Z,20.17
2018-08-04T23:09:18.716Z,18.13
2018-08-04T23:14:22.705Z,23.40
2018-08-04T23:19:26.560Z,18.80
2018-08-04T23:24:31.213Z,19.03
2018-08-04T23:29:35.844Z,18.53
2018-08-04T23:34:40.169Z,19.00
2018-08-04T23:39:44.017Z,19.37
2018-08-04T23:44:48.826Z,20.30
2018-08-04T23:49:52.790Z,18.83
2018-08-04T23:54:57.223Z,22.00
